TAF and METAR

Could not understand the following METAR

YPKU 280530Z AUTO 08006KT 030V110 9999 // SCT070 37/18 Q1009

TAF for Kununurra Airport

TAF YPKU 280013Z 2802/2814 10005KT CAVOK PROB30 TEMPO 2804/2810 VRB25G40KT 2000 TSRA SCT020 SCT060CB
Report created 28. okt 01:13

between 28. okt 03:00 - 28. okt 15:00

wind 5 knots from E (100°) Clear sky

probably (~30%) temporarily between 28. okt 05:00 - 28. okt 11:00

wind 25 knots from various directions with gusts up to 40 knots visibility 2000 meters thunderstorm and rain scattered clouds (~50% cover) at 2000 feet scattered clouds (~50% cover) at 6000 feet of type cumulonimbus
Kununurra Airport in Australia at 45m

Latest 5 airports